Time;durP1;ratioP1;P1;durP2;ratioP2;P2;SDS_P1;SDS_P2;PMS_P1;PMS_P2;Temp;Humidity;BMP_temperature;BMP_pressure;BME280_temperature;BME280_humidity;BME280_pressure;Samples;Min_cycle;Max_cycle;Signal;HPM_P1;HPM_P2
2020/12/22 00:05:07;;;;;;;6.45;1.63;;;;;;;15.11;81.66;101011.47;4947993;28;20479;-71
2020/12/22 00:07:34;;;;;;;10.05;1.58;;;;;;;15.17;81.14;100988.75;5015288;28;20050;-71
2020/12/22 00:10:01;;;;;;;6.63;1.33;;;;;;;15.08;81.40;101003.84;5015748;28;20504;-72
2020/12/22 00:12:28;;;;;;;8.10;1.30;;;;;;;15.19;81.51;101007.81;5016074;28;20054;-70
2020/12/22 00:14:55;;;;;;;6.78;1.60;;;;;;;15.45;79.84;101000.16;5015913;28;20054;-70
2020/12/22 00:17:22;;;;;;;6.05;1.52;;;;;;;15.44;79.99;101001.31;5015587;28;20049;-73
2020/12/22 00:19:49;;;;;;;6.63;1.55;;;;;;;15.52;79.46;100998.47;5014843;28;20049;-72
2020/12/22 00:22:16;;;;;;;6.97;1.23;;;;;;;15.30;80.53;100997.94;5014317;28;20156;-74
2020/12/22 00:24:43;;;;;;;7.90;2.08;;;;;;;15.05;81.08;101001.72;4998027;28;20057;-73
2020/12/22 00:27:10;;;;;;;6.15;1.30;;;;;;;15.19;81.07;100983.66;5015918;28;20385;-73
2020/12/22 00:29:37;;;;;;;9.18;1.50;;;;;;;15.02;82.52;100999.63;5015171;28;20056;-69
2020/12/22 00:32:04;;;;;;;4.78;1.38;;;;;;;15.17;81.62;100988.75;5015149;28;20058;-73
2020/12/22 00:34:31;;;;;;;5.50;1.40;;;;;;;15.21;81.12;100988.88;5014998;28;20489;-65
2020/12/22 00:36:59;;;;;;;8.63;1.20;;;;;;;15.17;81.36;101004.56;5015563;28;20057;-67
2020/12/22 00:39:27;;;;;;;5.57;1.20;;;;;;;15.13;81.55;100984.22;5014981;28;20046;-69
2020/12/22 00:41:55;;;;;;;5.95;1.40;;;;;;;15.01;81.80;100975.81;5015730;28;20052;-67
2020/12/22 00:44:23;;;;;;;4.22;1.25;;;;;;;15.01;81.96;100967.50;4981610;28;20061;-67
2020/12/22 00:46:54;;;;;;;4.00;1.20;;;;;;;14.86;82.43;100993.03;5013466;28;20057;-68
2020/12/22 00:49:21;;;;;;;5.07;1.10;;;;;;;14.98;81.98;100980.06;5014999;28;20058;-68
2020/12/22 00:51:49;;;;;;;5.85;1.40;;;;;;;15.05;81.88;100985.88;4981517;28;20054;-72
2020/12/22 00:54:17;;;;;;;6.00;1.15;;;;;;;14.94;81.71;100983.84;5014091;28;20046;-69
2020/12/22 00:56:47;;;;;;;6.15;1.13;;;;;;;15.02;82.03;100983.78;4997095;28;20512;-69
2020/12/22 00:59:20;;;;;;;5.82;1.52;;;;;;;15.11;81.80;100995.66;4996911;28;20477;-69
2020/12/22 01:01:47;;;;;;;3.92;1.10;;;;;;;14.98;82.21;101002.25;5014659;28;20068;-69
2020/12/22 01:04:15;;;;;;;6.43;1.20;;;;;;;15.03;81.65;100996.50;5013801;28;20057;-72
2020/12/22 01:06:42;;;;;;;6.90;1.20;;;;;;;15.13;81.57;101001.66;5014873;28;20054;-66
2020/12/22 01:09:09;;;;;;;6.40;0.98;;;;;;;15.13;81.68;101004.44;5015054;28;20050;-65
2020/12/22 01:11:40;;;;;;;7.90;1.45;;;;;;;15.42;80.66;100987.78;5013093;28;20072;-67
2020/12/22 01:14:07;;;;;;;5.82;1.05;;;;;;;15.33;80.44;100975.06;5014966;28;20049;-66
2020/12/22 01:16:34;;;;;;;4.70;1.00;;;;;;;15.21;80.61;100973.03;5014134;28;20053;-65
2020/12/22 01:19:01;;;;;;;4.35;1.10;;;;;;;14.83;82.37;100979.84;4980974;28;20481;-72
2020/12/22 01:21:28;;;;;;;5.80;1.20;;;;;;;14.99;82.29;100987.25;5013825;28;20054;-71
2020/12/22 01:23:55;;;;;;;5.53;1.02;;;;;;;15.02;82.37;100988.53;5014062;28;20046;-69
2020/12/22 01:26:24;;;;;;;6.05;1.00;;;;;;;15.20;81.41;100988.06;5014269;28;20042;-70
2020/12/22 01:28:55;;;;;;;7.47;1.17;;;;;;;15.33;80.49;100975.06;5014479;28;20076;-73
2020/12/22 01:31:23;;;;;;;3.75;1.10;;;;;;;15.18;81.19;100978.47;5014746;28;20402;-74
2020/12/22 01:33:51;;;;;;;5.90;1.00;;;;;;;15.01;82.00;100973.81;5013683;28;20049;-73
2020/12/22 01:36:18;;;;;;;5.30;1.10;;;;;;;15.18;81.58;100982.06;5014205;28;20062;-71
2020/12/22 01:38:46;;;;;;;4.45;1.17;;;;;;;15.12;81.50;100979.78;5014171;28;20054;-71
2020/12/22 01:41:14;;;;;;;4.82;1.00;;;;;;;15.16;81.50;100984.34;5014520;28;20046;-74
2020/12/22 01:43:41;;;;;;;3.30;0.90;;;;;;;15.23;81.27;100978.25;4996650;28;20050;-73
2020/12/22 01:46:10;;;;;;;2.83;0.73;;;;;;;15.12;81.52;100993.66;5013884;28;20413;-71
2020/12/22 01:48:37;;;;;;;4.00;0.82;;;;;;;15.02;82.43;100997.66;5014399;28;20053;-72
2020/12/22 01:51:05;;;;;;;3.72;0.90;;;;;;;15.19;81.50;100988.41;4996889;28;20049;-71
2020/12/22 01:53:31;;;;;;;3.53;0.63;;;;;;;15.20;81.50;101003.91;5014154;28;20046;-74
2020/12/22 01:55:58;;;;;;;3.80;0.82;;;;;;;15.26;81.66;100997.81;5013375;28;20493;-72
2020/12/22 01:58:25;;;;;;;4.70;0.98;;;;;;;15.34;81.19;100991.38;5013523;28;20057;-73
2020/12/22 02:00:52;;;;;;;4.55;0.90;;;;;;;14.93;83.29;101002.44;5013519;28;20500;-73
2020/12/22 02:07:47;;;;;;;3.38;0.90;;;;;;;15.12;83.11;101008.38;5013864;28;20057;-72
2020/12/22 02:10:14;;;;;;;4.15;0.88;;;;;;;15.17;82.87;101005.38;4964913;28;20054;-74
2020/12/22 02:12:41;;;;;;;2.28;0.35;;;;;;;14.84;83.98;101010.00;4996230;28;20409;-71
2020/12/22 02:15:08;;;;;;;3.25;0.77;;;;;;;14.87;84.57;101008.53;4996266;28;20065;-71
2020/12/22 02:22:04;;;;;;;4.82;0.75;;;;;;;15.00;84.52;101007.47;5013303;28;20050;-71
2020/12/22 02:24:34;;;;;;;1.45;0.60;;;;;;;15.09;83.95;100999.91;5013375;28;20061;-66
2020/12/22 02:27:03;;;;;;;3.80;0.60;;;;;;;15.07;83.79;101011.34;4980594;28;20049;-69
2020/12/22 02:29:32;;;;;;;3.80;0.90;;;;;;;15.20;83.27;101004.69;4996393;28;20053;-70
2020/12/22 02:36:33;;;;;;;3.70;0.80;;;;;;;15.02;83.73;101002.41;4992246;28;20405;-67
2020/12/22 02:39:01;;;;;;;4.73;0.83;;;;;;;14.99;83.90;101015.00;4993746;28;20486;-72
2020/12/22 02:41:28;;;;;;;3.92;0.85;;;;;;;15.06;83.66;101009.72;4993994;28;20054;-71
2020/12/22 02:43:54;;;;;;;2.97;0.80;;;;;;;15.09;83.50;101011.81;4959606;28;20053;-68
2020/12/22 02:50:45;;;;;;;1.85;0.68;;;;;;;15.04;83.33;101008.41;4993907;28;20046;-71
2020/12/22 02:53:12;;;;;;;2.08;0.70;;;;;;;15.08;83.67;101007.41;4993706;28;20062;-73
2020/12/22 02:55:38;;;;;;;1.98;0.63;;;;;;;15.16;83.58;101017.66;4993124;28;20084;-72
2020/12/22 02:58:05;;;;;;;2.72;0.90;;;;;;;15.18;83.05;101023.69;4992596;28;20053;-73
2020/12/22 03:00:33;;;;;;;3.75;0.70;;;;;;;15.15;83.20;101029.09;4993667;28;20054;-70
2020/12/22 03:07:38;;;;;;;4.22;0.75;;;;;;;15.03;83.77;101040.88;4993507;28;20046;-72
2020/12/22 03:10:09;;;;;;;3.10;0.60;;;;;;;15.27;83.00;101037.50;4993421;28;20390;-73
2020/12/22 03:12:36;;;;;;;3.75;0.70;;;;;;;15.41;82.37;101022.22;4993078;28;20055;-71
2020/12/22 03:15:05;;;;;;;4.00;0.65;;;;;;;15.18;82.99;101039.50;4993530;28;20046;-71
2020/12/22 03:17:33;;;;;;;4.95;0.95;;;;;;;15.04;83.60;101045.31;4992913;28;20058;-72
2020/12/22 03:20:01;;;;;;;6.68;0.70;;;;;;;15.12;83.76;101027.78;4993143;28;20066;-68
2020/12/22 03:22:28;;;;;;;2.63;0.63;;;;;;;14.91;84.89;101038.03;4993432;28;20050;-71
2020/12/22 03:24:54;;;;;;;3.28;0.80;;;;;;;15.15;84.58;101029.88;4993036;28;20055;-71
2020/12/22 03:27:21;;;;;;;4.82;0.80;;;;;;;15.16;84.41;101025.97;4993400;28;20061;-70
2020/12/22 03:29:48;;;;;;;4.47;0.60;;;;;;;15.19;84.04;101025.28;4992721;28;20509;-67
2020/12/22 03:32:15;;;;;;;1.83;0.80;;;;;;;15.12;84.54;101022.22;4993609;28;20053;-72
2020/12/22 03:34:43;;;;;;;3.83;0.57;;;;;;;15.30;83.52;101022.94;4998548;28;20061;-71
2020/12/22 03:37:10;;;;;;;3.60;0.57;;;;;;;15.10;84.88;101021.75;5011961;28;20065;-74
2020/12/22 03:39:37;;;;;;;1.83;0.50;;;;;;;15.09;84.72;101022.09;4995490;28;20050;-70
2020/12/22 03:42:04;;;;;;;9.88;0.80;;;;;;;15.14;84.77;101025.50;4995096;28;20358;-69
2020/12/22 03:44:31;;;;;;;2.97;0.60;;;;;;;15.23;84.56;101031.81;5012238;28;20064;-70
2020/12/22 03:46:58;;;;;;;2.50;0.63;;;;;;;15.09;84.53;101025.69;5012188;28;20512;-66
2020/12/22 03:49:24;;;;;;;1.98;0.70;;;;;;;15.12;84.69;101027.78;4995395;28;20045;-69
2020/12/22 03:51:51;;;;;;;2.40;0.40;;;;;;;15.17;84.34;101024.00;5012452;28;20050;-71
2020/12/22 03:54:18;;;;;;;4.10;0.52;;;;;;;15.14;84.68;101024.66;4994974;28;20052;-64
2020/12/22 03:56:45;;;;;;;3.95;0.65;;;;;;;15.23;84.75;101020.69;5015314;28;20073;-66
2020/12/22 03:59:12;;;;;;;4.15;0.68;;;;;;;15.13;84.64;101017.50;4998922;28;20065;-71
2020/12/22 04:01:41;;;;;;;5.30;1.00;;;;;;;15.00;85.50;101019.38;5015465;28;20041;-73
2020/12/22 04:04:08;;;;;;;2.42;0.70;;;;;;;14.83;86.48;101005.63;5015620;28;20049;-70
2020/12/22 04:06:35;;;;;;;2.85;0.47;;;;;;;14.73;87.44;101019.88;5014568;28;20058;-71
2020/12/22 04:09:02;;;;;;;4.35;0.43;;;;;;;14.97;85.96;101036.69;5015942;28;20046;-71
2020/12/22 04:11:30;;;;;;;1.50;0.40;;;;;;;14.94;85.74;101025.47;5016330;28;20045;-73
2020/12/22 04:13:57;;;;;;;1.95;0.50;;;;;;;15.06;85.88;101031.91;5015380;28;20516;-70
2020/12/22 04:16:24;;;;;;;1.52;0.40;;;;;;;15.14;84.89;101033.00;5015501;28;20050;-71
2020/12/22 04:23:14;;;;;;;1.65;0.47;;;;;;;15.25;84.51;101035.06;5015700;28;20049;-70
2020/12/22 04:25:41;;;;;;;2.15;0.40;;;;;;;15.44;83.25;101037.41;5015370;28;20057;-72
2020/12/22 04:28:08;;;;;;;3.53;0.50;;;;;;;14.97;84.85;101035.88;5015376;28;20050;-72
2020/12/22 04:30:35;;;;;;;3.13;0.50;;;;;;;15.00;84.63;101036.03;5015096;28;20069;-72
2020/12/22 04:33:01;;;;;;;1.52;0.40;;;;;;;15.04;84.75;101038.94;5015833;28;20045;-71
2020/12/22 04:35:28;;;;;;;3.55;0.90;;;;;;;15.20;84.08;101042.75;5015321;28;20057;-73
2020/12/22 04:37:55;;;;;;;4.68;0.60;;;;;;;15.02;84.45;101042.06;5015343;28;20502;-67
2020/12/22 04:40:22;;;;;;;4.07;0.55;;;;;;;15.01;85.06;101045.16;5014972;28;20446;-72
2020/12/22 04:42:49;;;;;;;3.40;0.70;;;;;;;14.99;85.12;101053.81;5015001;28;20057;-69
2020/12/22 04:45:17;;;;;;;3.70;0.85;;;;;;;15.10;84.65;101054.25;5015673;28;20401;-72
2020/12/22 04:47:46;;;;;;;3.92;0.80;;;;;;;15.08;84.88;101056.56;5015294;28;20050;-73
2020/12/22 04:50:14;;;;;;;2.00;0.55;;;;;;;15.14;84.73;101050.47;5013543;28;20046;-68
2020/12/22 04:52:41;;;;;;;2.55;0.77;;;;;;;15.22;83.99;101035.72;5015135;28;20057;-69
2020/12/22 04:55:10;;;;;;;3.80;0.70;;;;;;;15.28;83.92;101045.47;5014661;28;20053;-72
2020/12/22 04:57:54;;;;;;;3.75;0.70;;;;;;;15.28;83.55;101041.88;5014868;28;20512;-68
2020/12/22 05:00:21;;;;;;;3.95;1.17;;;;;;;15.21;84.15;101039.66;5015173;28;20045;-72
2020/12/22 05:02:50;;;;;;;4.65;0.75;;;;;;;15.18;84.66;101045.06;4997829;28;20049;-65
2020/12/22 05:05:18;;;;;;;4.68;0.68;;;;;;;15.10;84.10;101040.38;5014805;28;20046;-68
2020/12/22 05:07:45;;;;;;;5.95;0.75;;;;;;;14.99;85.02;101047.47;5014350;28;20057;-66
2020/12/22 05:10:13;;;;;;;6.53;0.98;;;;;;;14.93;85.42;101043.22;5014924;28;20068;-66
2020/12/22 05:12:41;;;;;;;3.65;0.60;;;;;;;15.05;85.48;101046.09;5014694;28;20065;-67
2020/12/22 05:15:10;;;;;;;2.65;0.77;;;;;;;15.23;83.75;101042.09;5015276;28;20058;-65
2020/12/22 05:17:42;;;;;;;5.75;0.70;;;;;;;15.02;85.25;101057.88;4997581;28;20057;-72
2020/12/22 05:20:12;;;;;;;4.00;0.50;;;;;;;14.92;85.50;101058.25;5014944;28;20041;-73
2020/12/22 05:22:40;;;;;;;2.40;0.43;;;;;;;15.12;84.85;101058.31;5014668;28;20050;-72
2020/12/22 05:25:07;;;;;;;3.33;0.45;;;;;;;15.01;85.50;101056.25;5014496;28;20130;-72
2020/12/22 05:27:34;;;;;;;2.72;0.43;;;;;;;14.88;85.52;101058.13;5013955;28;20393;-72
2020/12/22 05:30:04;;;;;;;2.83;0.40;;;;;;;14.90;86.00;101055.00;5014545;28;20071;-72
2020/12/22 05:32:31;;;;;;;;;;;;;;;15.17;85.33;101057.28;4980945;28;20042;-72
2020/12/22 05:34:58;;;;;;;2.22;0.40;;;;;;;15.02;85.20;101061.47;5013168;28;19944;-73
2020/12/22 05:37:25;;;;;;;5.68;0.73;;;;;;;15.09;84.95;101058.16;4996896;28;20382;-73
2020/12/22 05:39:52;;;;;;;1.90;0.50;;;;;;;14.78;86.47;101058.50;4997076;28;20050;-70
2020/12/22 05:42:20;;;;;;;3.92;0.65;;;;;;;14.98;85.99;101062.47;5013437;28;20046;-72
2020/12/22 05:44:51;;;;;;;2.92;0.50;;;;;;;15.08;85.31;101059.31;5014570;28;20061;-73
2020/12/22 05:47:19;;;;;;;2.33;0.57;;;;;;;15.03;85.03;101060.31;4997367;28;20053;-73
2020/12/22 05:49:51;;;;;;;3.10;0.50;;;;;;;15.17;84.57;101052.56;4996702;28;20054;-73
2020/12/22 05:52:28;;;;;;;1.10;0.47;;;;;;;15.17;83.98;101058.09;5013894;28;20069;-72
2020/12/22 05:54:59;;;;;;;2.15;0.85;;;;;;;15.15;84.36;101051.28;5013725;28;20057;-70
2020/12/22 05:57:28;;;;;;;2.03;0.50;;;;;;;15.03;84.62;101051.19;5013846;28;20062;-74
2020/12/22 05:59:55;;;;;;;1.15;0.30;;;;;;;15.14;84.88;101056.00;4996063;28;20049;-71
2020/12/22 06:02:30;;;;;;;2.45;0.60;;;;;;;14.84;85.37;101056.31;5014103;28;20050;-74
2020/12/22 06:04:57;;;;;;;3.20;0.50;;;;;;;15.09;84.89;101060.94;4996622;28;20046;-70
2020/12/22 06:07:25;;;;;;;1.42;0.40;;;;;;;15.06;84.07;101069.94;5013661;28;20079;-70
2020/12/22 06:09:53;;;;;;;0.70;0.30;;;;;;;15.08;84.91;101062.88;5013872;28;20046;-72
2020/12/22 06:12:21;;;;;;;1.23;0.40;;;;;;;15.14;84.46;101069.88;5013909;28;20049;-71
2020/12/22 06:14:52;;;;;;;1.90;0.60;;;;;;;15.16;84.50;101072.31;5013457;28;20057;-68
2020/12/22 06:17:20;;;;;;;1.13;0.40;;;;;;;15.30;83.76;101076.50;5013153;28;20054;-71
2020/12/22 06:19:48;;;;;;;1.63;0.50;;;;;;;14.87;85.88;101083.41;5013714;28;20394;-72
2020/12/22 06:22:16;;;;;;;1.77;0.65;;;;;;;14.91;86.16;101084.34;5013507;28;20050;-73
2020/12/22 06:24:44;;;;;;;2.83;0.60;;;;;;;14.93;86.25;101082.88;5013040;28;20101;-71
2020/12/22 06:27:13;;;;;;;1.45;0.32;;;;;;;14.93;85.92;101082.88;4996076;28;20056;-69
2020/12/22 06:29:44;;;;;;;3.33;0.60;;;;;;;14.94;85.72;101095.59;4996105;28;20397;-67
2020/12/22 06:32:17;;;;;;;1.45;0.30;;;;;;;15.04;85.96;101094.44;5011462;28;20060;-64
2020/12/22 06:36:42;;;;;;;1.85;0.47;;;;;;;15.08;84.91;101096.19;5010870;28;20050;-65
2020/12/22 06:39:10;;;;;;;3.95;0.80;;;;;;;15.00;84.69;101101.78;4976510;28;20058;-68
2020/12/22 06:41:39;;;;;;;1.63;0.52;;;;;;;15.02;84.75;101094.75;4994365;28;20050;-67
2020/12/22 06:44:25;;;;;;;1.98;0.40;;;;;;;14.88;85.26;101107.22;4993808;28;20050;-68
2020/12/22 06:47:00;;;;;;;3.70;0.60;;;;;;;14.97;85.76;101102.44;4993750;28;20058;-71
2020/12/22 06:53:51;;;;;;;3.78;0.60;;;;;;;14.94;84.99;101100.34;4994150;28;20050;-71
2020/12/22 06:56:42;;;;;;;2.85;0.70;;;;;;;14.84;85.22;101111.78;4976448;28;20062;-72
2020/12/22 06:59:11;;;;;;;4.20;0.80;;;;;;;14.95;85.06;101101.97;4982305;28;20046;-69
2020/12/22 07:01:46;;;;;;;3.03;0.80;;;;;;;15.23;83.83;101103.13;4993624;28;20057;-70
2020/12/22 07:04:21;;;;;;;2.92;0.70;;;;;;;15.27;83.25;101116.00;4977835;28;20046;-72
2020/12/22 07:06:47;;;;;;;2.13;0.60;;;;;;;15.18;82.92;101118.03;4993749;28;20050;-70
2020/12/22 07:09:28;;;;;;;1.83;0.40;;;;;;;15.08;83.72;101107.28;4992864;28;20062;-69
2020/12/22 07:12:07;;;;;;;5.72;0.70;;;;;;;15.04;84.19;101120.22;4993567;28;20398;-71
2020/12/22 07:14:41;;;;;;;4.82;1.05;;;;;;;15.11;83.86;101125.25;4993866;28;20046;-70
2020/12/22 07:17:12;;;;;;;4.57;0.70;;;;;;;14.91;84.31;101117.63;4975822;28;20050;-72
2020/12/22 07:19:43;;;;;;;5.10;0.83;;;;;;;15.09;84.60;101128.34;4992522;28;20066;-70
2020/12/22 07:22:10;;;;;;;2.95;0.85;;;;;;;15.19;83.69;101124.38;4975325;28;20054;-70
2020/12/22 07:24:37;;;;;;;3.53;0.77;;;;;;;15.19;83.08;101129.91;4993557;28;20498;-69
2020/12/22 07:27:05;;;;;;;3.95;1.05;;;;;;;15.11;83.58;101131.59;4992061;28;20055;-71
2020/12/22 07:29:32;;;;;;;3.53;0.80;;;;;;;15.13;83.25;101136.81;4992887;28;20057;-73
2020/12/22 07:31:59;;;;;;;7.40;1.35;;;;;;;14.83;84.74;101129.59;4995798;28;20152;-71
2020/12/22 07:34:26;;;;;;;9.23;1.60;;;;;;;14.93;84.68;101123.66;4979297;28;20050;-72
2020/12/22 07:37:08;;;;;;;6.07;1.40;;;;;;;14.93;84.77;101130.03;4998351;28;20055;-66
2020/12/22 07:39:36;;;;;;;6.13;1.00;;;;;;;14.87;85.46;101133.34;5016675;28;20488;-73
2020/12/22 07:42:17;;;;;;;5.68;1.05;;;;;;;15.13;83.89;101122.94;5016211;28;20057;-69
2020/12/22 07:44:47;;;;;;;10.23;1.95;;;;;;;15.06;84.08;101129.03;4999441;28;20053;-68
2020/12/22 07:47:14;;;;;;;18.75;6.45;;;;;;;14.99;84.31;101134.28;5016600;28;20050;-67
2020/12/22 07:49:42;;;;;;;4.57;1.05;;;;;;;15.25;83.15;101131.38;5015750;28;20054;-67
2020/12/22 07:52:18;;;;;;;5.23;1.37;;;;;;;15.08;83.38;101123.13;4998972;28;20057;-68
2020/12/22 07:54:57;;;;;;;6.38;0.90;;;;;;;15.23;83.33;101133.66;5015441;28;20311;-69
2020/12/22 07:57:25;;;;;;;2.53;0.60;;;;;;;15.10;83.91;101143.84;5015803;28;20054;-72
2020/12/22 08:00:00;;;;;;;3.83;0.65;;;;;;;15.19;83.49;101143.78;4998354;28;20079;-72
2020/12/22 08:02:27;;;;;;;2.70;0.70;;;;;;;15.09;84.15;101141.41;5016158;28;20050;-66
2020/12/22 08:04:54;;;;;;;4.07;0.80;;;;;;;15.28;83.01;101155.66;5016261;28;20049;-70
2020/12/22 08:07:21;;;;;;;3.97;0.60;;;;;;;15.18;83.47;101144.97;5014317;28;20530;-69
2020/12/22 08:09:48;;;;;;;7.20;0.88;;;;;;;15.19;83.68;101152.13;5014461;28;20050;-67
2020/12/22 08:12:15;;;;;;;2.78;0.70;;;;;;;15.31;83.49;101157.78;5015073;28;20050;-72
2020/12/22 08:14:44;;;;;;;5.45;1.63;;;;;;;14.98;84.86;101168.69;4981447;28;20493;-70
2020/12/22 08:17:20;;;;;;;6.85;1.10;;;;;;;15.01;85.50;101158.91;4981495;28;20050;-71
2020/12/22 08:19:48;;;;;;;4.57;0.50;;;;;;;15.09;85.33;101161.66;5015656;28;20060;-72
2020/12/22 08:22:16;;;;;;;3.50;0.70;;;;;;;15.08;85.30;101162.78;5013716;28;20397;-70
2020/12/22 08:24:43;;;;;;;1.75;0.70;;;;;;;15.09;85.53;101169.97;4998151;28;20578;-70
2020/12/22 08:27:11;;;;;;;3.47;0.60;;;;;;;15.35;84.17;101169.84;5014834;28;20053;-71
2020/12/22 08:29:39;;;;;;;4.63;0.93;;;;;;;15.14;85.05;101172.56;5014151;28;20046;-71
2020/12/22 08:32:06;;;;;;;1.90;0.57;;;;;;;15.54;83.49;101173.03;5014775;28;20038;-69
2020/12/22 08:34:33;;;;;;;2.75;0.80;;;;;;;15.18;84.67;101173.53;5013846;28;20480;-69
2020/12/22 08:37:09;;;;;;;3.85;0.50;;;;;;;15.32;84.69;101179.66;5015103;28;20411;-71
2020/12/22 08:39:41;;;;;;;0.85;0.30;;;;;;;15.41;83.72;101186.00;5015024;28;20053;-72
2020/12/22 08:42:10;;;;;;;5.70;1.10;;;;;;;15.28;83.73;101178.69;5014685;28;20417;-72
2020/12/22 08:44:46;;;;;;;1.27;0.60;;;;;;;15.36;83.91;101190.91;4997481;28;20490;-72
2020/12/22 08:47:14;;;;;;;2.67;0.50;;;;;;;15.34;83.91;101194.00;4981429;28;20079;-70
2020/12/22 08:49:43;;;;;;;1.38;0.52;;;;;;;15.18;84.69;101194.91;4998176;28;20042;-73
2020/12/22 08:52:11;;;;;;;4.78;0.82;;;;;;;15.20;84.62;101187.84;5014562;28;20485;-72
2020/12/22 08:54:38;;;;;;;2.00;0.60;;;;;;;15.23;85.15;101200.28;5015067;28;20038;-73
2020/12/22 08:57:12;;;;;;;3.90;0.85;;;;;;;15.31;84.83;101204.97;5015429;28;20046;-71
2020/12/22 08:59:40;;;;;;;2.67;0.68;;;;;;;15.22;84.69;101191.13;5013529;28;20053;-70
2020/12/22 09:02:24;;;;;;;3.58;0.90;;;;;;;15.02;85.54;101193.81;4981168;28;20049;-70
2020/12/22 09:04:51;;;;;;;5.32;1.00;;;;;;;15.40;84.75;101197.44;4996714;28;20149;-70
2020/12/22 09:07:18;;;;;;;1.95;0.70;;;;;;;15.35;83.58;101205.94;5013973;28;20053;-72
2020/12/22 09:09:45;;;;;;;5.05;1.73;;;;;;;15.12;84.89;101210.09;5014305;28;20050;-71
2020/12/22 09:12:13;;;;;;;4.95;2.00;;;;;;;15.31;84.31;101211.34;5014619;28;20054;-69
2020/12/22 09:14:45;;;;;;;1.85;0.80;;;;;;;15.44;83.33;101206.75;5014894;28;20050;-71
2020/12/22 09:17:13;;;;;;;3.10;0.85;;;;;;;15.56;83.23;101216.00;4996555;28;20520;-72
2020/12/22 09:19:44;;;;;;;1.73;0.50;;;;;;;15.39;83.36;101218.00;5014446;28;20045;-71
2020/12/22 09:22:12;;;;;;;3.15;0.57;;;;;;;15.35;83.99;101223.41;5014428;28;20050;-74
2020/12/22 09:24:41;;;;;;;4.40;1.10;;;;;;;15.40;83.31;101222.44;5012803;28;20054;-71
2020/12/22 09:27:10;;;;;;;2.10;0.73;;;;;;;15.49;83.42;101228.75;5013513;28;20056;-71
2020/12/22 09:29:41;;;;;;;2.45;0.90;;;;;;;15.68;83.11;101232.75;5013964;28;20305;-72
2020/12/22 09:32:09;;;;;;;2.22;0.80;;;;;;;15.66;82.42;101237.81;5013277;28;20397;-71
2020/12/22 09:34:38;;;;;;;3.58;0.90;;;;;;;15.63;82.58;101244.06;4996499;28;20054;-71
2020/12/22 09:37:06;;;;;;;1.92;1.05;;;;;;;15.38;83.26;101244.94;5012113;28;20050;-70
2020/12/22 09:39:35;;;;;;;4.03;0.90;;;;;;;15.38;83.64;101247.72;5011374;28;20065;-68
2020/12/22 09:42:04;;;;;;;6.32;1.23;;;;;;;15.49;83.66;101250.97;4996304;28;20049;-70
2020/12/22 09:44:31;;;;;;;3.78;0.80;;;;;;;15.52;83.22;101251.13;4996280;28;20397;-70
2020/12/22 09:46:58;;;;;;;3.30;0.80;;;;;;;15.46;83.40;101243.31;5014080;28;20046;-69
2020/12/22 09:49:28;;;;;;;;;;;;;;;15.68;82.08;101243.84;5012716;28;20061;-69
2020/12/22 09:51:55;;;;;;;4.95;1.05;;;;;;;15.72;81.84;101250.38;5013905;28;19928;-67
2020/12/22 09:54:22;;;;;;;3.50;1.00;;;;;;;15.61;82.04;101257.44;4996634;28;20064;-66
2020/12/22 09:56:50;;;;;;;3.55;0.70;;;;;;;15.95;81.27;101261.19;5013711;28;20370;-66
2020/12/22 09:59:17;;;;;;;6.65;0.73;;;;;;;15.76;81.25;101261.59;4996562;28;20054;-70
2020/12/22 10:01:45;;;;;;;3.70;0.90;;;;;;;15.85;80.97;101265.16;5013020;28;20057;-66
2020/12/22 10:04:13;;;;;;;4.22;1.08;;;;;;;15.71;81.34;101254.28;4996429;28;20421;-70
2020/12/22 10:06:40;;;;;;;2.80;0.90;;;;;;;15.56;82.12;101265.97;5012993;28;20057;-71
2020/12/22 10:09:07;;;;;;;4.05;0.90;;;;;;;15.54;82.52;101276.59;5014046;28;20523;-71
2020/12/22 10:11:36;;;;;;;2.53;0.80;;;;;;;15.61;82.73;101257.44;5013081;28;20050;-69
2020/12/22 10:14:05;;;;;;;1.88;0.70;;;;;;;15.63;81.96;101273.78;5013006;28;20414;-66
2020/12/22 10:16:34;;;;;;;3.47;0.80;;;;;;;15.68;82.59;101266.06;5013369;28;20042;-71
2020/12/22 10:19:01;;;;;;;2.88;0.70;;;;;;;15.79;81.58;101267.31;5012577;28;20379;-68
2020/12/22 10:21:28;;;;;;;2.28;0.82;;;;;;;15.87;81.58;101264.81;5012936;28;20046;-70
2020/12/22 10:23:59;;;;;;;5.35;0.80;;;;;;;16.07;80.04;101272.41;5012825;28;20053;-67
2020/12/22 10:26:27;;;;;;;1.55;0.70;;;;;;;15.97;80.71;101273.59;5012615;28;20489;-68
2020/12/22 10:28:55;;;;;;;3.00;0.82;;;;;;;15.75;81.27;101277.47;5012127;28;20041;-67
2020/12/22 10:31:24;;;;;;;5.25;1.20;;;;;;;15.81;81.27;101274.50;5013226;28;20042;-66
2020/12/22 10:33:52;;;;;;;3.15;1.02;;;;;;;15.76;82.11;101272.72;5013435;28;20037;-68
2020/12/22 10:40:50;;;;;;;2.10;0.75;;;;;;;15.89;81.33;101273.63;4993563;28;20045;-70
2020/12/22 10:43:17;;;;;;;2.35;0.70;;;;;;;15.84;81.18;101265.50;4975483;28;20478;-69
2020/12/22 10:45:45;;;;;;;2.13;0.80;;;;;;;15.74;81.39;101273.06;4992972;28;20046;-69
2020/12/22 10:48:13;;;;;;;3.53;1.30;;;;;;;15.85;81.31;101270.72;4992996;28;20509;-66
2020/12/22 10:55:20;;;;;;;3.45;0.80;;;;;;;16.00;80.77;101275.72;4992480;28;20054;-72
2020/12/22 10:57:47;;;;;;;3.22;1.05;;;;;;;16.25;80.01;101274.72;4975358;28;20398;-65
2020/12/22 11:00:14;;;;;;;2.83;1.20;;;;;;;16.19;79.84;101275.25;4992667;28;20051;-72
2020/12/22 11:02:41;;;;;;;3.05;0.93;;;;;;;16.14;79.83;101269.91;4991139;28;20061;-70
2020/12/22 11:05:09;;;;;;;6.57;0.90;;;;;;;16.13;80.28;101266.28;4992560;28;20107;-68
2020/12/22 11:07:48;;;;;;;2.47;0.80;;;;;;;16.04;80.22;101262.75;4992726;28;20057;-69
2020/12/22 11:10:16;;;;;;;6.13;1.10;;;;;;;15.94;80.91;101259.56;4993375;28;20430;-67
2020/12/22 11:12:43;;;;;;;5.18;1.40;;;;;;;15.98;81.28;101252.19;4993335;28;20051;-66
2020/12/22 11:15:10;;;;;;;1.60;0.60;;;;;;;16.06;80.64;101263.22;4993401;28;20054;-64
2020/12/22 11:17:37;;;;;;;3.80;1.52;;;;;;;16.11;80.45;101259.47;4991777;28;20077;-67
2020/12/22 11:20:04;;;;;;;3.10;0.93;;;;;;;16.38;79.55;101259.75;4991595;28;20054;-66
2020/12/22 11:22:31;;;;;;;2.58;0.80;;;;;;;16.48;79.10;101267.72;4993472;28;20367;-67
2020/12/22 11:25:13;;;;;;;2.05;0.70;;;;;;;16.45;79.31;101264.75;4993157;28;20394;-70
2020/12/22 11:27:41;;;;;;;3.70;0.70;;;;;;;16.10;80.41;101269.75;4975986;28;20046;-70
2020/12/22 11:30:10;;;;;;;3.35;0.80;;;;;;;16.32;79.81;101263.88;4975563;28;20050;-68
2020/12/22 11:32:37;;;;;;;1.85;1.00;;;;;;;16.47;79.43;101268.06;4975706;28;20055;-67
2020/12/22 11:35:05;;;;;;;1.65;0.80;;;;;;;16.49;78.83;101257.41;4975906;28;20066;-71
2020/12/22 11:37:32;;;;;;;2.90;0.77;;;;;;;16.16;79.90;101248.94;4993251;28;20161;-71
2020/12/22 11:39:59;;;;;;;3.03;1.00;;;;;;;16.20;80.26;101255.47;5006458;28;20057;-68
2020/12/22 11:42:26;;;;;;;4.80;2.15;;;;;;;16.33;80.41;101256.34;5013475;28;20042;-69
2020/12/22 11:44:53;;;;;;;3.67;1.40;;;;;;;16.55;79.34;101258.81;5012708;28;20061;-66
2020/12/22 11:47:21;;;;;;;3.22;0.93;;;;;;;16.52;79.40;101263.09;5012534;28;20393;-66
2020/12/22 11:49:48;;;;;;;2.83;1.05;;;;;;;16.48;79.45;101253.81;5012709;28;20050;-67
2020/12/22 11:52:16;;;;;;;2.70;0.88;;;;;;;16.76;78.83;101243.72;5012290;28;20058;-70
2020/12/22 11:54:47;;;;;;;2.97;0.93;;;;;;;16.88;78.15;101246.56;5013115;28;20030;-71
2020/12/22 11:57:17;;;;;;;4.15;1.00;;;;;;;16.78;78.43;101247.00;5012207;28;20422;-72
2020/12/22 11:59:43;;;;;;;3.03;0.90;;;;;;;16.73;78.57;101233.28;5011150;28;20142;-69
2020/12/22 12:02:11;;;;;;;3.28;1.17;;;;;;;16.81;78.21;101242.69;5012604;28;20050;-69
2020/12/22 12:04:38;;;;;;;1.95;0.88;;;;;;;16.71;78.68;101238.38;5010693;28;20057;-69
2020/12/22 12:07:05;;;;;;;4.95;1.42;;;;;;;16.92;77.65;101243.91;5011931;28;20053;-69
2020/12/22 12:09:32;;;;;;;3.50;1.38;;;;;;;17.05;77.28;101231.63;5013219;28;20397;-69
2020/12/22 12:11:59;;;;;;;2.97;0.90;;;;;;;17.04;77.66;101238.38;4995274;28;20503;-72
2020/12/22 12:14:26;;;;;;;4.80;1.20;;;;;;;16.93;77.94;101239.94;5011942;28;20389;-69
2020/12/22 12:16:53;;;;;;;3.90;1.10;;;;;;;16.79;78.64;101239.44;5012960;28;20061;-71
2020/12/22 12:19:20;;;;;;;4.40;1.27;;;;;;;16.84;78.25;101242.81;5016141;28;20061;-71